Time;durP1;ratioP1;P1;durP2;ratioP2;P2;SDS_P1;SDS_P2;PMS_P1;PMS_P2;Temp;Humidity;BMP_temperature;BMP_pressure;BME280_temperature;BME280_humidity;BME280_pressure;Samples;Min_cycle;Max_cycle;Signal;HPM_P1;HPM_P2
2023/09/22 00:02:00;;;;;;;4.72;3.53;;;16.10;99.90;;;;;;5059533;28;20037;-77
2023/09/22 00:04:26;;;;;;;4.45;2.80;;;16.00;99.90;;;;;;5058674;28;20496;-77
2023/09/22 00:06:53;;;;;;;6.28;2.50;;;15.90;99.90;;;;;;5059177;28;20025;-78
2023/09/22 00:09:19;;;;;;;2.85;2.30;;;15.90;99.90;;;;;;5061099;28;20017;-77
2023/09/22 00:11:44;;;;;;;2.38;1.85;;;15.80;99.90;;;;;;5059481;28;20486;-79
2023/09/22 00:14:10;;;;;;;3.10;1.83;;;15.70;99.90;;;;;;5059640;28;20080;-78
2023/09/22 00:16:36;;;;;;;3.67;1.60;;;15.70;99.90;;;;;;5059590;28;20033;-78
2023/09/22 00:19:05;;;;;;;2.53;1.63;;;15.60;99.90;;;;;;5060618;28;20025;-76
2023/09/22 00:21:32;;;;;;;2.83;1.63;;;15.50;99.90;;;;;;5064448;28;20104;-76
2023/09/22 00:23:58;;;;;;;2.25;1.70;;;15.50;99.90;;;;;;5063994;28;20042;-77
2023/09/22 00:26:24;;;;;;;1.63;1.42;;;15.50;99.90;;;;;;5062540;28;20416;-78
2023/09/22 00:28:49;;;;;;;2.65;1.80;;;15.40;99.90;;;;;;5063098;28;20021;-76
2023/09/22 00:31:15;;;;;;;3.45;1.90;;;15.40;99.90;;;;;;5063335;28;20083;-75
2023/09/22 00:33:40;;;;;;;3.25;2.25;;;15.40;99.90;;;;;;5061003;28;20021;-77
2023/09/22 00:36:06;;;;;;;3.47;2.50;;;15.30;99.90;;;;;;5062571;28;20648;-76
2023/09/22 00:38:31;;;;;;;3.63;2.50;;;15.30;99.90;;;;;;5061173;28;20036;-74
2023/09/22 00:40:57;;;;;;;4.43;2.80;;;15.30;99.90;;;;;;5062427;28;20041;-82
2023/09/22 00:43:23;;;;;;;3.28;2.75;;;15.30;99.90;;;;;;5062770;28;20033;-77
2023/09/22 00:45:52;;;;;;;4.47;3.15;;;15.40;99.90;;;;;;5061955;28;20104;-76
2023/09/22 00:48:27;;;;;;;5.40;3.72;;;15.40;99.90;;;;;;5062444;28;20021;-77
2023/09/22 00:50:55;;;;;;;6.65;4.07;;;15.30;99.90;;;;;;5061244;28;20049;-76
2023/09/22 00:53:24;;;;;;;6.50;4.50;;;15.40;99.90;;;;;;5062640;28;20055;-78
2023/09/22 00:55:52;;;;;;;6.75;4.43;;;15.40;99.90;;;;;;5062827;28;20052;-75
2023/09/22 00:58:18;;;;;;;7.93;4.60;;;15.30;99.90;;;;;;5062989;28;20036;-76
2023/09/22 01:00:49;;;;;;;7.13;4.68;;;15.30;99.90;;;;;;5062819;28;20132;-76
2023/09/22 01:03:19;;;;;;;7.13;4.93;;;15.30;99.90;;;;;;5062243;28;20033;-74
2023/09/22 01:05:46;;;;;;;6.70;4.70;;;15.30;99.90;;;;;;5062471;28;20105;-77
2023/09/22 01:08:12;;;;;;;7.82;5.07;;;15.20;99.90;;;;;;5063528;28;20037;-76
2023/09/22 01:10:40;;;;;;;7.55;5.18;;;15.30;99.90;;;;;;5063742;28;20036;-75
2023/09/22 01:13:06;;;;;;;9.20;5.43;;;15.30;99.90;;;;;;5062998;28;20017;-75
2023/09/22 01:15:40;;;;;;;10.13;6.07;;;15.30;99.90;;;;;;5061447;28;20029;-77
2023/09/22 01:18:06;;;;;;;10.10;6.18;;;15.30;99.90;;;;;;5060760;28;20023;-76
2023/09/22 01:20:33;;;;;;;8.45;5.72;;;15.20;99.90;;;;;;5061360;28;20041;-75
2023/09/22 01:22:58;;;;;;;13.30;6.35;;;15.30;99.90;;;;;;5062702;28;20501;-77
2023/09/22 01:25:24;;;;;;;11.80;6.05;;;15.30;99.90;;;;;;5062663;28;20021;-76
2023/09/22 01:27:50;;;;;;;8.95;6.00;;;15.30;99.90;;;;;;5061700;28;20045;-77
2023/09/22 01:30:16;;;;;;;10.95;6.55;;;15.20;99.90;;;;;;5063546;28;20074;-76
2023/09/22 01:32:42;;;;;;;9.23;6.20;;;15.30;99.90;;;;;;5062343;28;20021;-76
2023/09/22 01:35:08;;;;;;;9.90;6.63;;;15.20;99.90;;;;;;5061494;28;20453;-77
2023/09/22 01:37:50;;;;;;;9.45;6.15;;;15.30;99.90;;;;;;5062561;28;20044;-80
2023/09/22 01:40:16;;;;;;;9.77;6.95;;;15.20;99.90;;;;;;5061699;28;20035;-76
2023/09/22 01:42:43;;;;;;;9.98;6.18;;;15.20;99.90;;;;;;5060818;28;20040;-75
2023/09/22 01:45:09;;;;;;;11.50;7.20;;;15.30;99.90;;;;;;5062173;28;20033;-76
2023/09/22 01:47:34;;;;;;;11.50;7.18;;;15.20;99.90;;;;;;5060643;28;20027;-77
2023/09/22 01:50:01;;;;;;;11.02;7.38;;;15.30;99.90;;;;;;5061936;28;20049;-77
2023/09/22 01:52:27;;;;;;;15.80;7.72;;;15.20;99.90;;;;;;5062403;28;20017;-77
2023/09/22 01:54:52;;;;;;;12.07;7.70;;;15.20;99.90;;;;;;5061118;28;20036;-77
2023/09/22 01:57:19;;;;;;;13.60;8.00;;;15.10;99.90;;;;;;5061915;28;20028;-78
2023/09/22 01:59:45;;;;;;;12.93;7.55;;;15.10;99.90;;;;;;5060604;28;20511;-78
2023/09/22 02:02:11;;;;;;;11.40;7.82;;;15.10;99.90;;;;;;5061051;28;20049;-76
2023/09/22 02:04:36;;;;;;;13.77;8.35;;;15.10;99.90;;;;;;5060793;28;20101;-75
2023/09/22 02:07:03;;;;;;;13.52;8.02;;;15.20;99.90;;;;;;5060808;28;20033;-78
2023/09/22 02:09:28;;;;;;;13.20;8.35;;;15.20;99.90;;;;;;5061386;28;20021;-77
2023/09/22 02:11:54;;;;;;;11.45;7.75;;;15.20;99.90;;;;;;5061686;28;20032;-76
2023/09/22 02:14:19;;;;;;;13.43;7.75;;;15.20;99.90;;;;;;5060133;28;20031;-75
2023/09/22 02:16:45;;;;;;;12.75;7.55;;;15.20;99.90;;;;;;5060645;28;20029;-76
2023/09/22 02:19:11;;;;;;;14.75;8.13;;;15.30;99.90;;;;;;5061850;28;20450;-75
2023/09/22 02:21:37;;;;;;;14.50;8.70;;;15.20;99.90;;;;;;5060810;28;20646;-74
2023/09/22 02:24:03;;;;;;;15.27;8.50;;;15.20;99.90;;;;;;5061430;28;20043;-77
2023/09/22 02:26:29;;;;;;;12.50;8.32;;;15.20;99.90;;;;;;5060879;28;20036;-76
2023/09/22 02:28:54;;;;;;;12.43;7.93;;;15.20;99.90;;;;;;5062085;28;20032;-79
2023/09/22 02:31:24;;;;;;;14.05;8.40;;;15.30;99.90;;;;;;5060776;28;20032;-78
2023/09/22 02:33:49;;;;;;;13.85;8.48;;;15.30;99.90;;;;;;5061777;28;20028;-75
2023/09/22 02:36:18;;;;;;;14.45;9.07;;;15.30;99.90;;;;;;5061411;28;20049;-76
2023/09/22 02:38:44;;;;;;;15.02;8.65;;;15.30;99.90;;;;;;5059967;28;20040;-77
2023/09/22 02:41:11;;;;;;;13.98;8.65;;;15.30;99.90;;;;;;5060614;28;20021;-77
2023/09/22 02:43:36;;;;;;;19.13;12.40;;;15.30;99.90;;;;;;5059022;28;20033;-75
2023/09/22 02:46:03;;;;;;;21.98;12.93;;;15.20;99.90;;;;;;5060358;28;20059;-76
2023/09/22 02:48:29;;;;;;;18.67;12.35;;;15.20;99.90;;;;;;5060097;28;20033;-76
2023/09/22 02:50:54;;;;;;;24.20;14.35;;;15.20;99.90;;;;;;5061466;28;20123;-74
2023/09/22 02:53:20;;;;;;;26.02;15.57;;;15.30;99.90;;;;;;5061761;28;20077;-75
2023/09/22 02:55:46;;;;;;;28.15;16.77;;;15.20;99.90;;;;;;5061950;28;20028;-74
2023/09/22 02:58:12;;;;;;;30.02;16.85;;;15.20;99.90;;;;;;5061548;28;20138;-75
2023/09/22 03:00:44;;;;;;;31.55;17.65;;;15.20;99.90;;;;;;5061439;28;20071;-74
2023/09/22 03:03:12;;;;;;;33.30;18.02;;;15.20;99.90;;;;;;5060091;28;20064;-75
2023/09/22 03:05:38;;;;;;;34.75;19.08;;;15.20;99.90;;;;;;5061101;28;20017;-74
2023/09/22 03:08:05;;;;;;;42.53;19.48;;;15.20;99.90;;;;;;5061129;28;20373;-74
2023/09/22 03:10:33;;;;;;;38.17;20.33;;;15.20;99.90;;;;;;5061337;28;20025;-74
2023/09/22 03:12:59;;;;;;;35.03;18.58;;;15.30;99.90;;;;;;5061318;28;20048;-75
2023/09/22 03:15:25;;;;;;;32.50;18.42;;;15.20;99.90;;;;;;5058935;28;20028;-75
2023/09/22 03:17:51;;;;;;;35.38;20.05;;;15.30;99.90;;;;;;5061799;28;20119;-74
2023/09/22 03:20:17;;;;;;;33.75;19.73;;;15.20;99.90;;;;;;5061206;28;20032;-74
2023/09/22 03:22:44;;;;;;;34.00;18.38;;;15.30;99.90;;;;;;5059596;28;20036;-75
2023/09/22 03:25:10;;;;;;;31.80;18.30;;;15.30;99.90;;;;;;5061262;28;20316;-74
2023/09/22 03:27:37;;;;;;;33.85;19.20;;;15.30;99.90;;;;;;5060824;28;20024;-74
2023/09/22 03:30:05;;;;;;;34.88;18.55;;;15.30;99.90;;;;;;5060980;28;20025;-75
2023/09/22 03:32:32;;;;;;;36.92;19.02;;;15.30;99.90;;;;;;5059908;28;20484;-74
2023/09/22 03:34:57;;;;;;;32.47;18.13;;;15.30;99.90;;;;;;5060372;28;20021;-74
2023/09/22 03:37:27;;;;;;;36.80;18.60;;;15.30;99.90;;;;;;5060003;28;20068;-75
2023/09/22 03:39:55;;;;;;;33.95;19.67;;;15.30;99.90;;;;;;5060246;28;20082;-74
2023/09/22 03:42:20;;;;;;;36.55;18.73;;;15.20;99.90;;;;;;5059759;28;20374;-74
2023/09/22 03:44:47;;;;;;;38.70;19.23;;;15.20;99.90;;;;;;5059978;28;20116;-74
2023/09/22 03:47:12;;;;;;;32.90;18.95;;;15.20;99.90;;;;;;5059358;28;20045;-71
2023/09/22 03:49:38;;;;;;;33.03;16.67;;;15.20;99.90;;;;;;5060286;28;20025;-75
2023/09/22 03:52:04;;;;;;;30.98;17.80;;;15.20;99.90;;;;;;5059113;28;20031;-74
2023/09/22 03:54:29;;;;;;;34.95;19.83;;;15.20;99.90;;;;;;5060435;28;20021;-73
2023/09/22 03:56:56;;;;;;;32.72;17.98;;;15.20;99.90;;;;;;5063563;28;20028;-75
2023/09/22 03:59:22;;;;;;;34.75;18.25;;;15.20;99.90;;;;;;5063445;28;20728;-74
2023/09/22 04:01:47;;;;;;;34.45;19.48;;;15.20;99.90;;;;;;5064560;28;20021;-75
2023/09/22 04:04:14;;;;;;;34.08;18.17;;;15.20;99.90;;;;;;5063185;28;20035;-73
2023/09/22 04:06:40;;;;;;;41.05;20.20;;;15.20;99.90;;;;;;5063290;28;20025;-75
2023/09/22 04:09:07;;;;;;;33.92;19.73;;;15.20;99.90;;;;;;5064275;28;20029;-74
2023/09/22 04:11:34;;;;;;;33.00;19.42;;;15.20;99.90;;;;;;5063235;28;20386;-74
2023/09/22 04:13:59;;;;;;;34.53;19.67;;;15.20;99.90;;;;;;5064625;28;20056;-74
2023/09/22 04:16:25;;;;;;;37.15;21.15;;;15.20;99.90;;;;;;5064555;28;20025;-73
2023/09/22 04:18:54;;;;;;;39.72;19.88;;;15.20;99.90;;;;;;5063268;28;20022;-73
2023/09/22 04:21:23;;;;;;;34.80;19.05;;;15.20;99.90;;;;;;5064052;28;20390;-74
2023/09/22 04:23:58;;;;;;;36.42;19.13;;;15.20;99.90;;;;;;5063984;28;20041;-72
2023/09/22 04:26:30;;;;;;;32.72;18.83;;;15.20;99.90;;;;;;5064602;28;20025;-72
2023/09/22 04:28:56;;;;;;;30.85;18.77;;;15.20;99.90;;;;;;5064552;28;20017;-73
2023/09/22 04:31:24;;;;;;;33.95;18.17;;;15.20;99.90;;;;;;5061623;28;20386;-74
2023/09/22 04:33:51;;;;;;;37.67;19.67;;;15.20;99.90;;;;;;5063784;28;20029;-74
2023/09/22 04:36:18;;;;;;;36.97;18.95;;;15.20;99.90;;;;;;5063407;28;20110;-75
2023/09/22 04:38:44;;;;;;;33.10;18.67;;;15.20;99.90;;;;;;5064128;28;20060;-74
2023/09/22 04:41:10;;;;;;;31.52;19.83;;;15.10;99.90;;;;;;5063527;28;20020;-72
2023/09/22 04:43:36;;;;;;;34.22;20.15;;;15.10;99.90;;;;;;5063994;28;20088;-73
2023/09/22 04:46:02;;;;;;;32.83;19.38;;;15.10;99.90;;;;;;5064423;28;20029;-72
2023/09/22 04:48:28;;;;;;;31.85;19.73;;;15.10;99.90;;;;;;5063294;28;20013;-73
2023/09/22 04:50:57;;;;;;;33.05;19.23;;;15.10;99.90;;;;;;5061510;28;20033;-73
2023/09/22 04:53:24;;;;;;;35.42;19.55;;;15.10;99.90;;;;;;5064027;28;20073;-72
2023/09/22 04:55:58;;;;;;;37.05;20.98;;;15.10;99.90;;;;;;5062774;28;20025;-72
2023/09/22 04:58:24;;;;;;;32.35;19.45;;;15.10;99.90;;;;;;5063369;28;20040;-72
2023/09/22 05:00:57;;;;;;;31.23;19.17;;;15.10;99.90;;;;;;5059939;28;20034;-75
2023/09/22 05:03:24;;;;;;;33.47;19.25;;;15.10;99.90;;;;;;5060586;28;20044;-73
2023/09/22 05:05:49;;;;;;;31.42;18.95;;;15.10;99.90;;;;;;5062952;28;20017;-75
2023/09/22 05:08:15;;;;;;;30.70;19.23;;;15.10;99.90;;;;;;5062646;28;20087;-74
2023/09/22 05:10:45;;;;;;;35.08;18.73;;;15.10;99.90;;;;;;5062271;28;20057;-76
2023/09/22 05:13:13;;;;;;;33.80;19.13;;;15.10;99.90;;;;;;5061374;28;20493;-73
2023/09/22 05:15:41;;;;;;;30.85;19.65;;;15.10;99.90;;;;;;5058748;28;20032;-71
2023/09/22 05:18:12;;;;;;;31.50;18.27;;;15.10;99.90;;;;;;5059769;28;20114;-73
2023/09/22 05:20:39;;;;;;;36.67;18.50;;;15.10;99.90;;;;;;5062116;28;20473;-71
2023/09/22 05:23:05;;;;;;;32.58;18.40;;;15.00;99.90;;;;;;5063082;28;20052;-67
2023/09/22 05:25:30;;;;;;;33.50;18.75;;;15.10;99.90;;;;;;5063183;28;20029;-71
2023/09/22 05:27:56;;;;;;;28.02;18.17;;;15.00;99.90;;;;;;5063416;28;20025;-72
2023/09/22 05:30:23;;;;;;;29.85;18.08;;;15.00;99.90;;;;;;5062599;28;20085;-73
2023/09/22 05:32:48;;;;;;;31.75;18.80;;;15.00;99.90;;;;;;5062973;28;20017;-73
2023/09/22 05:35:15;;;;;;;28.05;18.10;;;15.00;99.90;;;;;;5062870;28;20060;-73
2023/09/22 05:37:41;;;;;;;32.63;18.92;;;15.00;99.90;;;;;;5062943;28;20024;-71
2023/09/22 05:40:12;;;;;;;31.27;18.58;;;15.00;99.90;;;;;;5062624;28;20067;-72
2023/09/22 05:42:38;;;;;;;29.52;17.40;;;15.00;99.90;;;;;;5061193;28;20043;-72
2023/09/22 05:45:05;;;;;;;32.47;18.35;;;15.00;99.90;;;;;;5063006;28;20025;-72
2023/09/22 05:47:30;;;;;;;29.73;17.60;;;15.00;99.90;;;;;;5061095;28;20104;-71
2023/09/22 05:49:56;;;;;;;29.88;18.02;;;15.00;99.90;;;;;;5063127;28;20025;-72
2023/09/22 05:52:22;;;;;;;28.67;18.13;;;15.00;99.90;;;;;;5062704;28;20049;-74
2023/09/22 05:54:47;;;;;;;28.50;17.50;;;15.00;99.90;;;;;;5061707;28;20036;-73
2023/09/22 05:57:13;;;;;;;29.00;17.00;;;15.00;99.90;;;;;;5061350;28;20025;-74
2023/09/22 05:59:39;;;;;;;27.75;17.63;;;15.00;99.90;;;;;;5062454;28;20017;-73
2023/09/22 06:02:05;;;;;;;27.23;17.17;;;15.00;99.90;;;;;;5062662;28;20058;-71
2023/09/22 06:04:32;;;;;;;28.83;17.75;;;15.00;99.90;;;;;;5062384;28;20028;-73
2023/09/22 06:06:58;;;;;;;27.25;16.92;;;15.00;99.90;;;;;;5062528;28;20017;-73
2023/09/22 06:09:24;;;;;;;26.60;17.20;;;15.00;99.90;;;;;;5062684;28;20055;-70
2023/09/22 06:11:50;;;;;;;25.85;16.48;;;15.00;99.90;;;;;;5061870;28;20021;-73
2023/09/22 06:14:15;;;;;;;26.73;16.90;;;15.00;99.90;;;;;;5061022;28;20093;-73
2023/09/22 06:16:41;;;;;;;24.85;16.88;;;15.00;99.90;;;;;;5062392;28;20021;-72
2023/09/22 06:19:10;;;;;;;26.42;16.60;;;15.00;99.90;;;;;;5062390;28;20056;-72
2023/09/22 06:21:38;;;;;;;25.08;15.82;;;15.00;99.90;;;;;;5062058;28;20115;-72
2023/09/22 06:24:06;;;;;;;24.58;15.35;;;15.00;99.90;;;;;;5062269;28;20060;-73
2023/09/22 06:26:32;;;;;;;25.52;15.07;;;15.00;99.90;;;;;;5062193;28;20085;-71
2023/09/22 06:28:58;;;;;;;24.15;14.25;;;15.00;99.90;;;;;;5061836;28;20029;-69
2023/09/22 06:31:23;;;;;;;26.13;14.90;;;15.00;99.90;;;;;;5061887;28;20030;-71
2023/09/22 06:33:49;;;;;;;23.20;14.10;;;15.00;99.90;;;;;;5062336;28;20021;-70
2023/09/22 06:36:15;;;;;;;22.15;13.90;;;15.00;99.90;;;;;;5060329;28;20083;-71
2023/09/22 06:38:41;;;;;;;24.23;13.05;;;14.90;99.90;;;;;;5062067;28;20077;-69
2023/09/22 06:41:06;;;;;;;22.58;14.15;;;15.00;99.90;;;;;;5061967;28;20025;-69
2023/09/22 06:43:36;;;;;;;24.45;14.90;;;15.00;99.90;;;;;;5061666;28;20065;-71
2023/09/22 06:46:05;;;;;;;29.33;14.50;;;15.00;99.90;;;;;;5061864;28;20017;-71
2023/09/22 06:48:32;;;;;;;23.65;14.18;;;15.00;99.90;;;;;;5061407;28;20058;-70
2023/09/22 06:50:58;;;;;;;23.98;15.15;;;15.00;99.90;;;;;;5061499;28;20126;-70
2023/09/22 06:53:26;;;;;;;23.80;13.43;;;15.10;99.90;;;;;;5062054;28;20033;-70
2023/09/22 06:56:12;;;;;;;25.23;14.82;;;15.10;99.90;;;;;;5060041;28;20032;-72
2023/09/22 06:58:40;;;;;;;29.35;14.95;;;15.10;99.90;;;;;;5061612;28;20033;-69
2023/09/22 07:01:07;;;;;;;25.75;15.07;;;15.10;99.90;;;;;;5061562;28;20072;-72
2023/09/22 07:03:33;;;;;;;25.02;14.55;;;15.10;99.90;;;;;;5061117;28;20063;-74
2023/09/22 07:05:59;;;;;;;24.00;14.93;;;15.20;99.90;;;;;;5056632;28;20037;-71
2023/09/22 07:08:25;;;;;;;22.02;14.00;;;15.10;99.90;;;;;;5058631;28;20060;-70
2023/09/22 07:10:54;;;;;;;25.77;14.63;;;15.10;99.90;;;;;;5057798;28;20029;-71
2023/09/22 07:13:29;;;;;;;22.88;13.10;;;15.20;99.90;;;;;;5060671;28;20497;-70
2023/09/22 07:15:57;;;;;;;27.00;14.18;;;15.10;99.90;;;;;;5057990;28;20029;-71
2023/09/22 07:18:27;;;;;;;23.10;14.65;;;15.10;99.90;;;;;;5061092;28;20063;-70
2023/09/22 07:20:53;;;;;;;22.02;13.27;;;15.10;99.90;;;;;;5059720;28;20104;-72
2023/09/22 07:23:22;;;;;;;25.13;14.02;;;15.10;99.90;;;;;;5059119;28;20072;-72
2023/09/22 07:25:59;;;;;;;25.13;14.50;;;15.10;99.90;;;;;;5059066;28;20077;-73
2023/09/22 07:28:26;;;;;;;19.90;12.80;;;15.10;99.90;;;;;;5060005;28;20036;-72
2023/09/22 07:30:52;;;;;;;25.40;13.43;;;15.10;99.90;;;;;;5062030;28;20055;-71
2023/09/22 07:33:18;;;;;;;20.75;12.98;;;15.10;99.90;;;;;;5064225;28;20465;-72
2023/09/22 07:35:46;;;;;;;27.50;12.93;;;15.10;99.90;;;;;;5063064;28;20040;-70
2023/09/22 07:38:12;;;;;;;24.75;12.75;;;15.10;99.90;;;;;;5063631;28;20028;-70
2023/09/22 07:40:37;;;;;;;22.85;12.90;;;15.10;99.90;;;;;;5063058;28;20033;-71
2023/09/22 07:43:04;;;;;;;22.58;13.68;;;15.10;99.90;;;;;;5063291;28;20049;-70
2023/09/22 07:45:29;;;;;;;23.70;13.65;;;15.00;99.90;;;;;;5062374;28;20085;-73
2023/09/22 07:47:55;;;;;;;21.73;12.98;;;15.10;99.90;;;;;;5061862;28;20040;-74
2023/09/22 07:50:21;;;;;;;24.40;13.57;;;15.10;99.90;;;;;;5063157;28;20070;-71
2023/09/22 07:52:46;;;;;;;20.98;13.00;;;15.10;99.90;;;;;;5065164;28;20677;-71
2023/09/22 07:55:14;;;;;;;21.27;13.55;;;15.30;99.90;;;;;;5064862;28;20958;-72
2023/09/22 07:57:40;;;;;;;23.33;12.32;;;15.40;99.90;;;;;;5063606;28;20024;-72
2023/09/22 08:00:10;;;;;;;19.20;12.45;;;15.50;99.90;;;;;;5063719;28;20037;-73
2023/09/22 08:02:36;;;;;;;19.25;11.73;;;15.70;99.90;;;;;;5062948;28;20040;-71
2023/09/22 08:05:02;;;;;;;19.27;11.52;;;15.90;99.90;;;;;;5064921;28;20021;-72
2023/09/22 08:07:27;;;;;;;15.90;10.02;;;16.10;99.90;;;;;;5064699;28;20388;-71
2023/09/22 08:09:53;;;;;;;18.10;11.23;;;16.10;99.90;;;;;;5064677;28;20052;-73
2023/09/22 08:12:19;;;;;;;16.63;10.30;;;16.10;99.90;;;;;;5063431;28;20036;-72
2023/09/22 08:14:47;;;;;;;15.48;9.68;;;16.00;99.90;;;;;;5063828;28;20078;-72
2023/09/22 08:17:15;;;;;;;16.15;9.98;;;15.90;99.90;;;;;;5062711;28;20044;-73
2023/09/22 08:19:41;;;;;;;17.55;10.32;;;15.80;99.90;;;;;;5063580;28;20028;-72
2023/09/22 08:22:07;;;;;;;19.60;10.60;;;15.80;99.90;;;;;;5064357;28;20044;-72
2023/09/22 08:24:32;;;;;;;19.15;10.55;;;15.70;99.90;;;;;;5063740;28;20106;-73
2023/09/22 08:26:59;;;;;;;20.35;10.77;;;15.70;99.90;;;;;;5059821;28;20017;-72
2023/09/22 08:29:25;;;;;;;16.90;9.30;;;15.60;99.90;;;;;;5063523;28;20120;-72
2023/09/22 08:31:51;;;;;;;19.98;8.70;;;15.60;99.90;;;;;;5064598;28;20039;-72
2023/09/22 08:34:16;;;;;;;14.73;9.27;;;15.60;99.90;;;;;;5063087;28;20116;-72
2023/09/22 08:36:42;;;;;;;15.63;9.02;;;15.60;99.90;;;;;;5063026;28;20080;-72
2023/09/22 08:39:08;;;;;;;15.77;8.27;;;15.60;99.90;;;;;;5062867;28;20547;-72
2023/09/22 08:41:37;;;;;;;13.85;7.47;;;15.60;99.90;;;;;;5064339;28;20047;-71
2023/09/22 08:44:06;;;;;;;15.10;7.65;;;15.60;99.90;;;;;;5059925;28;20483;-71
2023/09/22 08:46:34;;;;;;;14.63;7.40;;;15.60;99.90;;;;;;5063652;28;20116;-72
2023/09/22 08:49:00;;;;;;;14.07;7.35;;;15.70;99.90;;;;;;5063279;28;20025;-71
2023/09/22 08:51:25;;;;;;;17.20;7.35;;;15.80;99.90;;;;;;5062159;28;20020;-70
2023/09/22 08:53:53;;;;;;;14.10;6.80;;;15.80;99.90;;;;;;5060986;28;20226;-73
2023/09/22 08:56:22;;;;;;;14.98;6.68;;;15.80;99.90;;;;;;5060874;28;20029;-73
2023/09/22 08:58:48;;;;;;;13.63;7.35;;;15.90;99.90;;;;;;5060152;28;20124;-71
2023/09/22 09:01:15;;;;;;;13.80;7.80;;;15.90;99.90;;;;;;5063498;28;20061;-71
2023/09/22 09:03:41;;;;;;;13.27;7.93;;;15.90;99.90;;;;;;5062269;28;20383;-70
2023/09/22 09:06:08;;;;;;;12.93;7.50;;;15.90;99.90;;;;;;5061474;28;20079;-72
2023/09/22 09:08:34;;;;;;;12.60;7.70;;;15.90;99.90;;;;;;5060591;28;21606;-73
2023/09/22 09:11:06;;;;;;;15.82;9.38;;;15.80;99.90;;;;;;5056027;28;20025;-72
2023/09/22 09:13:32;;;;;;;16.02;9.15;;;15.80;99.90;;;;;;5061554;28;20043;-71
2023/09/22 09:16:01;;;;;;;14.88;9.57;;;15.90;99.90;;;;;;5060893;28;20045;-69
2023/09/22 09:18:26;;;;;;;14.82;10.23;;;15.90;99.90;;;;;;5062295;28;20032;-73
2023/09/22 09:21:10;;;;;;;18.75;11.00;;;15.90;99.90;;;;;;5062036;28;20488;-72
2023/09/22 09:23:36;;;;;;;17.33;10.75;;;15.90;99.90;;;;;;5063192;28;20068;-71
2023/09/22 09:26:02;;;;;;;20.48;11.68;;;15.90;99.90;;;;;;5060908;28;20029;-71
2023/09/22 09:28:28;;;;;;;17.25;11.70;;;15.80;99.90;;;;;;5061112;28;20029;-71
2023/09/22 09:30:59;;;;;;;18.98;11.65;;;15.70;99.90;;;;;;5057289;28;20029;-71
2023/09/22 09:33:34;;;;;;;22.52;12.50;;;15.60;99.90;;;;;;5063077;28;20116;-72
2023/09/22 09:36:00;;;;;;;21.50;12.60;;;15.60;99.90;;;;;;5062822;28;20045;-72
2023/09/22 09:38:27;;;;;;;20.75;13.00;;;15.60;99.90;;;;;;5061498;28;20114;-73
2023/09/22 09:40:54;;;;;;;21.67;13.40;;;15.60;99.90;;;;;;5063520;28;20045;-72
2023/09/22 09:43:21;;;;;;;18.50;12.55;;;15.70;99.90;;;;;;5063374;28;20056;-72
2023/09/22 09:45:57;;;;;;;24.50;12.38;;;15.70;99.90;;;;;;5063130;28;20622;-71
2023/09/22 09:48:24;;;;;;;15.23;11.80;;;15.80;99.90;;;;;;5063024;28;20025;-73
2023/09/22 09:50:57;;;;;;;19.35;12.45;;;15.70;99.90;;;;;;5062601;28;20039;-71
2023/09/22 09:53:44;;;;;;;19.33;12.63;;;15.70;99.90;;;;;;5062294;28;20405;-72
2023/09/22 09:56:14;;;;;;;21.48;12.25;;;15.70;99.90;;;;;;5062729;28;20033;-72
2023/09/22 09:58:42;;;;;;;21.63;12.45;;;15.60;99.90;;;;;;5061658;28;20067;-71
2023/09/22 10:01:08;;;;;;;21.00;12.68;;;15.60;99.90;;;;;;5060058;28;20051;-72
2023/09/22 10:03:36;;;;;;;18.27;12.55;;;15.70;99.90;;;;;;5062660;28;20100;-72
2023/09/22 10:06:07;;;;;;;18.92;11.25;;;15.70;99.90;;;;;;5061886;28;20146;-72
2023/09/22 10:08:32;;;;;;;17.25;12.38;;;15.70;99.90;;;;;;5062539;28;20079;-73
2023/09/22 10:11:07;;;;;;;17.60;12.18;;;15.70;99.90;;;;;;5062494;28;20466;-73
2023/09/22 10:13:35;;;;;;;16.20;10.30;;;15.70;99.90;;;;;;5061921;28;20029;-72
2023/09/22 10:16:03;;;;;;;23.98;10.80;;;15.80;99.90;;;;;;5060781;28;20092;-72
2023/09/22 10:18:51;;;;;;;14.13;10.07;;;15.80;99.90;;;;;;5060698;28;20048;-71
2023/09/22 10:21:31;;;;;;;14.90;10.00;;;15.90;99.90;;;;;;5059160;28;20036;-73
2023/09/22 10:24:23;;;;;;;15.45;9.52;;;15.90;99.90;;;;;;5059780;28;20044;-73
2023/09/22 10:27:07;;;;;;;12.80;7.68;;;16.00;99.90;;;;;;5060445;28;20668;-73
2023/09/22 10:29:33;;;;;;;10.43;7.30;;;16.00;99.90;;;;;;5061309;28;20028;-72
2023/09/22 10:32:26;;;;;;;9.75;7.63;;;16.00;99.90;;;;;;5060146;28;20466;-72
2023/09/22 10:35:15;;;;;;;12.50;8.02;;;16.00;99.90;;;;;;5060733;28;20060;-73
2023/09/22 10:38:04;;;;;;;13.82;8.25;;;16.00;99.90;;;;;;5059297;28;20043;-73
2023/09/22 10:40:30;;;;;;;11.88;7.78;;;16.10;99.90;;;;;;5060325;28;20032;-72
2023/09/22 10:42:56;;;;;;;10.43;7.63;;;16.20;99.90;;;;;;5061289;28;20041;-72
2023/09/22 10:45:27;;;;;;;10.07;7.40;;;16.20;99.90;;;;;;5060135;28;20119;-71
2023/09/22 10:47:53;;;;;;;13.88;7.15;;;16.30;99.90;;;;;;5060592;28;20116;-70
2023/09/22 10:50:21;;;;;;;11.73;7.60;;;16.30;99.90;;;;;;5064029;28;20032;-72
2023/09/22 10:53:05;;;;;;;13.10;7.13;;;16.40;99.90;;;;;;5051084;28;20029;-72
2023/09/22 10:55:36;;;;;;;10.23;7.18;;;16.40;99.90;;;;;;5056011;28;20025;-71
2023/09/22 10:58:07;;;;;;;7.88;6.47;;;16.60;99.90;;;;;;5060135;28;20029;-73
2023/09/22 11:00:39;;;;;;;9.93;6.70;;;16.90;99.90;;;;;;5063065;28;20115;-70
2023/09/22 11:03:12;;;;;;;9.38;6.10;;;17.10;99.90;;;;;;5062726;28;20033;-73
2023/09/22 11:05:39;;;;;;;6.43;5.72;;;17.40;99.90;;;;;;5059246;28;20063;-70
2023/09/22 11:08:17;;;;;;;5.68;4.70;;;17.60;99.90;;;;;;5047216;28;20017;-73
2023/09/22 11:10:48;;;;;;;8.00;5.18;;;17.80;99.90;;;;;;5056272;28;20395;-72
2023/09/22 11:13:15;;;;;;;5.82;4.72;;;18.00;99.90;;;;;;5058065;28;20025;-72
2023/09/22 11:15:49;;;;;;;6.45;4.65;;;18.10;99.90;;;;;;5058797;28;20124;-72
2023/09/22 11:18:31;;;;;;;9.57;4.18;;;18.30;99.90;;;;;;5060986;28;20453;-70
2023/09/22 11:21:05;;;;;;;6.70;4.15;;;18.30;99.90;;;;;;5060980;28;20021;-72
2023/09/22 11:23:32;;;;;;;8.02;4.38;;;18.40;99.90;;;;;;5060768;28;20073;-72
2023/09/22 11:26:09;;;;;;;8.90;4.57;;;18.40;99.90;;;;;;5060700;28;20432;-73
2023/09/22 11:28:39;;;;;;;8.13;4.60;;;18.50;99.90;;;;;;5058205;28;20104;-72
2023/09/22 11:31:09;;;;;;;7.40;4.32;;;18.60;99.90;;;;;;5058578;28;20470;-74
2023/09/22 11:33:38;;;;;;;4.60;3.60;;;18.80;99.90;;;;;;5060052;28;20044;-72
2023/09/22 11:36:05;;;;;;;4.55;3.50;;;19.00;99.90;;;;;;5054885;28;20141;-71
2023/09/22 11:38:32;;;;;;;8.43;3.92;;;19.00;99.90;;;;;;5054365;28;20021;-72
2023/09/22 11:41:10;;;;;;;8.70;3.97;;;19.10;99.90;;;;;;5058725;28;20033;-73
2023/09/22 11:43:40;;;;;;;6.53;4.15;;;19.30;99.90;;;;;;5056217;28;20051;-72
2023/09/22 11:46:14;;;;;;;5.20;4.13;;;19.20;99.90;;;;;;5056773;28;20097;-73
2023/09/22 11:48:59;;;;;;;6.57;4.57;;;19.10;99.90;;;;;;5058237;28;20051;-71
2023/09/22 11:51:52;;;;;;;9.93;4.18;;;19.00;99.90;;;;;;5059467;28;20033;-70
2023/09/22 11:54:26;;;;;;;8.25;4.07;;;19.00;99.90;;;;;;5058444;28;20071;-71
2023/09/22 11:56:55;;;;;;;4.63;3.85;;;19.10;99.90;;;;;;5060207;28;20025;-69
2023/09/22 11:59:23;;;;;;;8.38;4.57;;;19.00;99.90;;;;;;5054895;28;20087;-71
2023/09/22 12:01:50;;;;;;;6.15;4.35;;;18.80;99.90;;;;;;5058376;28;20068;-71
2023/09/22 12:04:18;;;;;;;6.00;4.50;;;18.60;99.90;;;;;;5058670;28;20032;-70
2023/09/22 12:06:44;;;;;;;5.93;4.25;;;18.40;99.90;;;;;;5058864;28;20203;-72
2023/09/22 12:09:12;;;;;;;7.82;4.50;;;18.30;99.90;;;;;;5059134;28;20079;-72
2023/09/22 12:11:39;;;;;;;4.95;4.45;;;18.20;99.90;;;;;;5057668;28;20028;-71
2023/09/22 12:14:05;;;;;;;5.70;4.75;;;18.10;99.90;;;;;;5058391;28;20029;-72
2023/09/22 12:16:32;;;;;;;5.90;4.90;;;18.00;99.90;;;;;;5060935;28;20036;-74
2023/09/22 12:18:58;;;;;;;5.03;4.50;;;18.00;99.90;;;;;;5060209;28;20025;-73
2023/09/22 12:21:27;;;;;;;6.93;4.72;;;18.20;99.90;;;;;;5061357;28;20028;-70
2023/09/22 12:23:53;;;;;;;9.13;4.95;;;18.50;99.90;;;;;;5055813;28;20041;-72
2023/09/22 12:26:19;;;;;;;5.90;4.20;;;18.80;99.90;;;;;;5055508;28;20022;-71
2023/09/22 12:28:44;;;;;;;5.03;4.43;;;18.90;99.90;;;;;;5056779;28;20037;-71
2023/09/22 12:31:10;;;;;;;6.38;4.22;;;19.00;99.90;;;;;;5055877;28;20089;-72
2023/09/22 12:33:37;;;;;;;4.75;3.67;;;19.20;99.90;;;;;;5057691;28;20036;-71
2023/09/22 12:36:03;;;;;;;6.80;3.40;;;19.40;99.90;;;;;;5056001;28;20509;-71
2023/09/22 12:38:28;;;;;;;4.90;3.72;;;19.40;99.90;;;;;;5058152;28;20044;-76